sensor_id;sensor_type;location;lat;lon;timestamp;P1;durP1;ratioP1;P2;durP2;ratioP2
67712;SDS011;67640;55.784;49.138;2024-01-11T00:00:49;3.30;;;0.60;;
67712;SDS011;67640;55.784;49.138;2024-01-11T00:06:10;2.37;;;0.47;;
67712;SDS011;67640;55.784;49.138;2024-01-11T00:11:30;2.45;;;0.53;;
67712;SDS011;67640;55.784;49.138;2024-01-11T00:16:51;3.65;;;0.80;;
67712;SDS011;67640;55.784;49.138;2024-01-11T00:22:10;2.02;;;0.68;;
67712;SDS011;67640;55.784;49.138;2024-01-11T00:27:29;2.35;;;0.70;;
67712;SDS011;67640;55.784;49.138;2024-01-11T00:32:34;3.10;;;0.80;;
67712;SDS011;67640;55.784;49.138;2024-01-11T00:37:53;4.20;;;0.82;;
67712;SDS011;67640;55.784;49.138;2024-01-11T00:43:14;1.00;;;0.20;;
67712;SDS011;67640;55.784;49.138;2024-01-11T00:48:33;3.37;;;0.68;;
67712;SDS011;67640;55.784;49.138;2024-01-11T00:53:52;2.35;;;0.62;;
67712;SDS011;67640;55.784;49.138;2024-01-11T00:59:11;0.40;;;0.10;;
67712;SDS011;67640;55.784;49.138;2024-01-11T01:04:17;3.15;;;0.57;;
67712;SDS011;67640;55.784;49.138;2024-01-11T01:09:21;3.67;;;0.78;;
67712;SDS011;67640;55.784;49.138;2024-01-11T01:14:39;3.77;;;0.87;;
67712;SDS011;67640;55.784;49.138;2024-01-11T01:19:44;7.22;;;0.60;;
67712;SDS011;67640;55.784;49.138;2024-01-11T01:24:49;2.77;;;0.50;;
67712;SDS011;67640;55.784;49.138;2024-01-11T01:30:06;7.33;;;0.80;;
67712;SDS011;67640;55.784;49.138;2024-01-11T01:35:12;4.37;;;1.52;;
67712;SDS011;67640;55.784;49.138;2024-01-11T01:40:17;3.08;;;0.50;;
67712;SDS011;67640;55.784;49.138;2024-01-11T01:45:36;3.57;;;0.80;;
67712;SDS011;67640;55.784;49.138;2024-01-11T01:50:55;5.67;;;0.85;;
67712;SDS011;67640;55.784;49.138;2024-01-11T01:56:15;2.20;;;1.15;;
67712;SDS011;67640;55.784;49.138;2024-01-11T02:01:22;5.03;;;0.90;;
67712;SDS011;67640;55.784;49.138;2024-01-11T02:06:27;7.25;;;0.60;;
67712;SDS011;67640;55.784;49.138;2024-01-11T02:11:33;3.90;;;0.93;;
67712;SDS011;67640;55.784;49.138;2024-01-11T02:16:52;3.42;;;1.00;;
67712;SDS011;67640;55.784;49.138;2024-01-11T02:22:46;2.33;;;0.50;;
67712;SDS011;67640;55.784;49.138;2024-01-11T02:32:58;1.55;;;0.65;;
67712;SDS011;67640;55.784;49.138;2024-01-11T02:38:16;4.08;;;1.22;;
67712;SDS011;67640;55.784;49.138;2024-01-11T02:43:22;4.67;;;1.12;;
67712;SDS011;67640;55.784;49.138;2024-01-11T02:48:46;4.20;;;1.22;;
67712;SDS011;67640;55.784;49.138;2024-01-11T02:53:51;3.87;;;0.82;;
67712;SDS011;67640;55.784;49.138;2024-01-11T02:59:09;7.72;;;1.50;;
67712;SDS011;67640;55.784;49.138;2024-01-11T03:04:14;8.27;;;2.00;;
67712;SDS011;67640;55.784;49.138;2024-01-11T03:09:33;2.83;;;1.10;;
67712;SDS011;67640;55.784;49.138;2024-01-11T03:14:38;3.77;;;1.40;;
67712;SDS011;67640;55.784;49.138;2024-01-11T03:19:57;3.95;;;1.15;;
67712;SDS011;67640;55.784;49.138;2024-01-11T03:25:16;4.97;;;1.30;;
67712;SDS011;67640;55.784;49.138;2024-01-11T03:30:22;2.27;;;1.00;;
67712;SDS011;67640;55.784;49.138;2024-01-11T03:35:28;3.85;;;1.20;;
67712;SDS011;67640;55.784;49.138;2024-01-11T03:40:33;3.87;;;1.30;;
67712;SDS011;67640;55.784;49.138;2024-01-11T03:45:52;3.22;;;0.90;;
67712;SDS011;67640;55.784;49.138;2024-01-11T03:51:14;2.52;;;0.78;;
67712;SDS011;67640;55.784;49.138;2024-01-11T03:56:19;3.62;;;1.07;;
67712;SDS011;67640;55.784;49.138;2024-01-11T04:01:39;5.53;;;1.32;;
67712;SDS011;67640;55.784;49.138;2024-01-11T04:06:59;5.10;;;1.40;;
67712;SDS011;67640;55.784;49.138;2024-01-11T04:12:04;5.03;;;0.93;;
67712;SDS011;67640;55.784;49.138;2024-01-11T04:17:25;4.42;;;1.10;;
67712;SDS011;67640;55.784;49.138;2024-01-11T04:22:31;4.92;;;1.60;;
67712;SDS011;67640;55.784;49.138;2024-01-11T04:27:36;5.28;;;1.25;;
67712;SDS011;67640;55.784;49.138;2024-01-11T04:32:46;3.80;;;1.02;;
67712;SDS011;67640;55.784;49.138;2024-01-11T04:37:51;5.83;;;1.53;;
67712;SDS011;67640;55.784;49.138;2024-01-11T04:43:08;3.67;;;0.73;;
67712;SDS011;67640;55.784;49.138;2024-01-11T04:48:13;5.67;;;1.32;;
67712;SDS011;67640;55.784;49.138;2024-01-11T04:53:32;8.80;;;1.30;;
67712;SDS011;67640;55.784;49.138;2024-01-11T04:58:51;3.87;;;1.10;;
67712;SDS011;67640;55.784;49.138;2024-01-11T05:04:10;5.33;;;1.32;;
67712;SDS011;67640;55.784;49.138;2024-01-11T05:09:29;2.30;;;0.90;;
67712;SDS011;67640;55.784;49.138;2024-01-11T05:14:34;4.58;;;1.60;;
67712;SDS011;67640;55.784;49.138;2024-01-11T05:19:53;3.80;;;0.93;;
67712;SDS011;67640;55.784;49.138;2024-01-11T05:24:58;5.10;;;1.33;;
67712;SDS011;67640;55.784;49.138;2024-01-11T05:30:04;3.50;;;1.20;;
67712;SDS011;67640;55.784;49.138;2024-01-11T05:35:23;4.40;;;0.95;;
67712;SDS011;67640;55.784;49.138;2024-01-11T05:40:43;2.25;;;0.47;;
67712;SDS011;67640;55.784;49.138;2024-01-11T05:46:02;5.30;;;1.20;;
67712;SDS011;67640;55.784;49.138;2024-01-11T05:51:07;9.30;;;1.30;;
67712;SDS011;67640;55.784;49.138;2024-01-11T05:56:13;4.42;;;1.10;;
67712;SDS011;67640;55.784;49.138;2024-01-11T06:01:18;2.87;;;1.05;;
67712;SDS011;67640;55.784;49.138;2024-01-11T06:06:37;4.22;;;1.20;;
67712;SDS011;67640;55.784;49.138;2024-01-11T06:11:56;3.17;;;0.80;;
67712;SDS011;67640;55.784;49.138;2024-01-11T06:17:02;2.70;;;0.50;;
67712;SDS011;67640;55.784;49.138;2024-01-11T06:22:21;5.47;;;1.42;;
67712;SDS011;67640;55.784;49.138;2024-01-11T06:27:27;2.10;;;0.70;;
67712;SDS011;67640;55.784;49.138;2024-01-11T06:32:46;2.92;;;0.98;;
67712;SDS011;67640;55.784;49.138;2024-01-11T06:38:05;0.98;;;0.42;;
67712;SDS011;67640;55.784;49.138;2024-01-11T06:43:10;3.43;;;1.27;;
67712;SDS011;67640;55.784;49.138;2024-01-11T06:48:15;2.75;;;0.80;;
67712;SDS011;67640;55.784;49.138;2024-01-11T06:53:33;1.95;;;0.37;;
67712;SDS011;67640;55.784;49.138;2024-01-11T06:58:40;3.30;;;0.60;;
67712;SDS011;67640;55.784;49.138;2024-01-11T07:03:46;3.40;;;0.88;;
67712;SDS011;67640;55.784;49.138;2024-01-11T07:09:03;3.35;;;1.07;;
67712;SDS011;67640;55.784;49.138;2024-01-11T07:14:21;6.03;;;1.20;;
67712;SDS011;67640;55.784;49.138;2024-01-11T07:19:26;3.60;;;0.90;;
67712;SDS011;67640;55.784;49.138;2024-01-11T07:24:45;4.35;;;1.25;;
67712;SDS011;67640;55.784;49.138;2024-01-11T07:30:06;3.55;;;0.68;;
67712;SDS011;67640;55.784;49.138;2024-01-11T07:35:11;3.27;;;1.70;;
67712;SDS011;67640;55.784;49.138;2024-01-11T07:40:16;6.00;;;1.20;;
67712;SDS011;67640;55.784;49.138;2024-01-11T07:45:36;7.60;;;1.43;;
67712;SDS011;67640;55.784;49.138;2024-01-11T07:50:55;8.68;;;1.42;;
67712;SDS011;67640;55.784;49.138;2024-01-11T07:56:12;3.02;;;0.95;;
67712;SDS011;67640;55.784;49.138;2024-01-11T08:01:17;3.33;;;0.65;;
67712;SDS011;67640;55.784;49.138;2024-01-11T08:06:22;4.65;;;1.05;;
67712;SDS011;67640;55.784;49.138;2024-01-11T08:11:41;2.40;;;1.05;;
67712;SDS011;67640;55.784;49.138;2024-01-11T08:17:00;6.23;;;1.43;;
67712;SDS011;67640;55.784;49.138;2024-01-11T08:22:19;3.10;;;0.60;;
67712;SDS011;67640;55.784;49.138;2024-01-11T08:27:40;2.15;;;0.90;;
67712;SDS011;67640;55.784;49.138;2024-01-11T08:33:07;1.50;;;0.73;;
67712;SDS011;67640;55.784;49.138;2024-01-11T08:38:13;4.28;;;1.02;;
67712;SDS011;67640;55.784;49.138;2024-01-11T08:43:32;2.75;;;1.02;;
67712;SDS011;67640;55.784;49.138;2024-01-11T08:54:11;3.77;;;0.90;;
67712;SDS011;67640;55.784;49.138;2024-01-11T08:59:16;2.60;;;0.72;;
67712;SDS011;67640;55.784;49.138;2024-01-11T09:04:21;2.03;;;0.50;;
67712;SDS011;67640;55.784;49.138;2024-01-11T09:09:41;6.60;;;0.70;;
67712;SDS011;67640;55.784;49.138;2024-01-11T09:15:00;3.62;;;0.93;;
67712;SDS011;67640;55.784;49.138;2024-01-11T09:20:38;1.42;;;0.70;;
67712;SDS011;67640;55.784;49.138;2024-01-11T09:25:43;1.15;;;0.30;;
67712;SDS011;67640;55.784;49.138;2024-01-11T09:30:49;1.77;;;0.47;;
67712;SDS011;67640;55.784;49.138;2024-01-11T09:35:54;1.50;;;0.62;;
67712;SDS011;67640;55.784;49.138;2024-01-11T09:41:14;1.95;;;0.90;;
67712;SDS011;67640;55.784;49.138;2024-01-11T09:46:32;1.93;;;0.57;;
67712;SDS011;67640;55.784;49.138;2024-01-11T09:51:37;1.22;;;0.33;;
67712;SDS011;67640;55.784;49.138;2024-01-11T09:56:43;1.15;;;0.40;;
67712;SDS011;67640;55.784;49.138;2024-01-11T10:02:02;3.70;;;0.43;;
67712;SDS011;67640;55.784;49.138;2024-01-11T10:07:21;2.30;;;0.40;;
67712;SDS011;67640;55.784;49.138;2024-01-11T10:12:54;1.90;;;0.40;;
67712;SDS011;67640;55.784;49.138;2024-01-11T10:17:59;3.20;;;0.40;;
67712;SDS011;67640;55.784;49.138;2024-01-11T10:23:18;2.90;;;0.60;;
67712;SDS011;67640;55.784;49.138;2024-01-11T10:28:37;4.67;;;0.82;;
67712;SDS011;67640;55.784;49.138;2024-01-11T10:33:57;3.10;;;0.82;;
67712;SDS011;67640;55.784;49.138;2024-01-11T10:39:16;5.10;;;0.82;;
67712;SDS011;67640;55.784;49.138;2024-01-11T10:44:22;1.67;;;0.30;;
67712;SDS011;67640;55.784;49.138;2024-01-11T10:49:27;2.37;;;0.68;;
67712;SDS011;67640;55.784;49.138;2024-01-11T10:54:33;4.75;;;0.98;;
67712;SDS011;67640;55.784;49.138;2024-01-11T10:59:52;0.65;;;0.30;;
67712;SDS011;67640;55.784;49.138;2024-01-11T11:05:12;2.60;;;1.02;;
67712;SDS011;67640;55.784;49.138;2024-01-11T11:10:18;0.90;;;0.40;;
67712;SDS011;67640;55.784;49.138;2024-01-11T11:15:38;0.50;;;0.28;;
67712;SDS011;67640;55.784;49.138;2024-01-11T11:20:45;1.20;;;0.45;;
67712;SDS011;67640;55.784;49.138;2024-01-11T11:26:05;2.70;;;0.57;;
67712;SDS011;67640;55.784;49.138;2024-01-11T11:36:48;1.65;;;0.42;;
67712;SDS011;67640;55.784;49.138;2024-01-11T11:42:09;2.57;;;0.60;;
67712;SDS011;67640;55.784;49.138;2024-01-11T11:52:54;2.03;;;0.73;;
67712;SDS011;67640;55.784;49.138;2024-01-11T11:58:13;1.05;;;0.23;;
67712;SDS011;67640;55.784;49.138;2024-01-11T12:03:18;1.60;;;0.33;;
67712;SDS011;67640;55.784;49.138;2024-01-11T12:08:23;1.17;;;0.53;;
67712;SDS011;67640;55.784;49.138;2024-01-11T12:13:29;0.75;;;0.23;;
67712;SDS011;67640;55.784;49.138;2024-01-11T12:18:49;0.70;;;0.30;;
67712;SDS011;67640;55.784;49.138;2024-01-11T12:24:07;1.60;;;0.37;;
67712;SDS011;67640;55.784;49.138;2024-01-11T12:29:14;3.62;;;0.47;;
67712;SDS011;67640;55.784;49.138;2024-01-11T12:34:32;5.17;;;0.55;;
67712;SDS011;67640;55.784;49.138;2024-01-11T12:50:58;0.88;;;0.30;;
67712;SDS011;67640;55.784;49.138;2024-01-11T12:56:05;2.65;;;0.68;;
67712;SDS011;67640;55.784;49.138;2024-01-11T13:01:11;5.65;;;0.28;;
67712;SDS011;67640;55.784;49.138;2024-01-11T13:06:30;1.25;;;0.40;;
67712;SDS011;67640;55.784;49.138;2024-01-11T13:11:49;3.20;;;0.57;;
67712;SDS011;67640;55.784;49.138;2024-01-11T13:17:09;1.30;;;0.30;;
67712;SDS011;67640;55.784;49.138;2024-01-11T13:22:14;3.47;;;0.55;;
67712;SDS011;67640;55.784;49.138;2024-01-11T13:27:33;3.43;;;0.60;;
67712;SDS011;67640;55.784;49.138;2024-01-11T13:32:54;1.42;;;0.40;;
67712;SDS011;67640;55.784;49.138;2024-01-11T13:38:13;1.27;;;0.62;;
67712;SDS011;67640;55.784;49.138;2024-01-11T13:43:32;0.77;;;0.37;;
67712;SDS011;67640;55.784;49.138;2024-01-11T13:48:38;1.82;;;0.72;;
67712;SDS011;67640;55.784;49.138;2024-01-11T13:53:43;1.57;;;0.60;;
67712;SDS011;67640;55.784;49.138;2024-01-11T13:59:02;2.47;;;0.70;;
67712;SDS011;67640;55.784;49.138;2024-01-11T14:04:20;4.62;;;0.62;;
67712;SDS011;67640;55.784;49.138;2024-01-11T14:09:26;2.42;;;0.42;;
67712;SDS011;67640;55.784;49.138;2024-01-11T14:14:45;1.60;;;0.67;;
67712;SDS011;67640;55.784;49.138;2024-01-11T14:19:50;2.22;;;0.50;;
67712;SDS011;67640;55.784;49.138;2024-01-11T14:25:09;3.58;;;1.07;;
67712;SDS011;67640;55.784;49.138;2024-01-11T14:35:47;4.33;;;1.50;;
67712;SDS011;67640;55.784;49.138;2024-01-11T14:40:52;6.03;;;1.75;;
67712;SDS011;67640;55.784;49.138;2024-01-11T14:45:58;3.17;;;0.87;;
67712;SDS011;67640;55.784;49.138;2024-01-11T14:51:17;9.13;;;1.50;;
67712;SDS011;67640;55.784;49.138;2024-01-11T14:56:38;4.60;;;1.25;;
67712;SDS011;67640;55.784;49.138;2024-01-11T15:01:57;0.65;;;0.20;;
67712;SDS011;67640;55.784;49.138;2024-01-11T15:07:02;7.90;;;1.32;;
67712;SDS011;67640;55.784;49.138;2024-01-11T15:12:08;3.87;;;1.30;;
67712;SDS011;67640;55.784;49.138;2024-01-11T15:17:13;5.33;;;1.42;;
67712;SDS011;67640;55.784;49.138;2024-01-11T15:22:32;4.90;;;1.07;;
67712;SDS011;67640;55.784;49.138;2024-01-11T15:27:51;1.57;;;0.53;;
67712;SDS011;67640;55.784;49.138;2024-01-11T15:33:08;1.98;;;0.85;;
67712;SDS011;67640;55.784;49.138;2024-01-11T15:38:14;4.87;;;1.50;;
67712;SDS011;67640;55.784;49.138;2024-01-11T15:43:20;4.77;;;1.40;;
67712;SDS011;67640;55.784;49.138;2024-01-11T15:48:39;4.08;;;1.00;;
67712;SDS011;67640;55.784;49.138;2024-01-11T15:53:58;17.37;;;4.00;;
67712;SDS011;67640;55.784;49.138;2024-01-11T15:59:17;4.75;;;1.45;;
67712;SDS011;67640;55.784;49.138;2024-01-11T16:04:22;3.10;;;0.98;;
67712;SDS011;67640;55.784;49.138;2024-01-11T16:09:28;6.53;;;1.13;;
67712;SDS011;67640;55.784;49.138;2024-01-11T16:14:34;3.33;;;0.80;;
67712;SDS011;67640;55.784;49.138;2024-01-11T16:19:52;5.60;;;0.62;;
67712;SDS011;67640;55.784;49.138;2024-01-11T16:24:57;4.73;;;1.70;;
67712;SDS011;67640;55.784;49.138;2024-01-11T16:30:04;2.70;;;1.00;;
67712;SDS011;67640;55.784;49.138;2024-01-11T16:35:23;6.17;;;1.30;;
67712;SDS011;67640;55.784;49.138;2024-01-11T16:40:42;1.80;;;0.88;;
67712;SDS011;67640;55.784;49.138;2024-01-11T16:46:01;5.33;;;2.15;;
67712;SDS011;67640;55.784;49.138;2024-01-11T16:51:06;5.10;;;1.40;;
67712;SDS011;67640;55.784;49.138;2024-01-11T16:56:11;5.67;;;1.52;;
67712;SDS011;67640;55.784;49.138;2024-01-11T17:01:17;9.55;;;2.12;;
67712;SDS011;67640;55.784;49.138;2024-01-11T17:06:36;6.67;;;1.47;;
67712;SDS011;67640;55.784;49.138;2024-01-11T17:11:55;2.15;;;0.60;;
67712;SDS011;67640;55.784;49.138;2024-01-11T17:17:14;4.97;;;1.17;;
67712;SDS011;67640;55.784;49.138;2024-01-11T17:22:19;5.05;;;1.60;;
67712;SDS011;67640;55.784;49.138;2024-01-11T17:27:24;4.17;;;1.27;;
67712;SDS011;67640;55.784;49.138;2024-01-11T17:32:42;4.77;;;0.93;;
67712;SDS011;67640;55.784;49.138;2024-01-11T17:37:47;7.47;;;2.02;;
67712;SDS011;67640;55.784;49.138;2024-01-11T17:42:53;5.17;;;1.87;;
67712;SDS011;67640;55.784;49.138;2024-01-11T17:48:12;4.60;;;1.13;;
67712;SDS011;67640;55.784;49.138;2024-01-11T17:53:31;3.47;;;1.10;;
67712;SDS011;67640;55.784;49.138;2024-01-11T17:58:50;7.03;;;2.03;;
67712;SDS011;67640;55.784;49.138;2024-01-11T18:03:55;5.83;;;1.12;;
67712;SDS011;67640;55.784;49.138;2024-01-11T18:09:00;10.25;;;1.67;;
67712;SDS011;67640;55.784;49.138;2024-01-11T18:14:19;5.17;;;1.30;;
67712;SDS011;67640;55.784;49.138;2024-01-11T18:19:38;5.50;;;1.65;;
67712;SDS011;67640;55.784;49.138;2024-01-11T18:24:58;7.27;;;1.73;;
67712;SDS011;67640;55.784;49.138;2024-01-11T18:30:17;4.17;;;0.82;;
67712;SDS011;67640;55.784;49.138;2024-01-11T18:35:36;7.37;;;1.65;;
67712;SDS011;67640;55.784;49.138;2024-01-11T18:40:54;8.33;;;2.27;;
67712;SDS011;67640;55.784;49.138;2024-01-11T18:45:59;6.10;;;1.67;;
67712;SDS011;67640;55.784;49.138;2024-01-11T18:51:05;6.40;;;2.00;;
67712;SDS011;67640;55.784;49.138;2024-01-11T18:56:24;5.27;;;1.83;;
67712;SDS011;67640;55.784;49.138;2024-01-11T19:07:22;4.87;;;1.50;;
67712;SDS011;67640;55.784;49.138;2024-01-11T19:12:27;5.50;;;1.57;;
67712;SDS011;67640;55.784;49.138;2024-01-11T19:17:32;6.87;;;2.12;;
67712;SDS011;67640;55.784;49.138;2024-01-11T19:22:49;7.35;;;1.85;;
67712;SDS011;67640;55.784;49.138;2024-01-11T19:27:54;8.00;;;1.83;;
67712;SDS011;67640;55.784;49.138;2024-01-11T19:33:00;8.03;;;1.82;;
67712;SDS011;67640;55.784;49.138;2024-01-11T19:38:19;5.97;;;1.30;;
67712;SDS011;67640;55.784;49.138;2024-01-11T19:43:38;7.35;;;2.27;;
67712;SDS011;67640;55.784;49.138;2024-01-11T19:48:56;3.80;;;1.00;;
67712;SDS011;67640;55.784;49.138;2024-01-11T19:54:01;3.55;;;0.75;;
67712;SDS011;67640;55.784;49.138;2024-01-11T19:59:20;7.50;;;1.15;;
67712;SDS011;67640;55.784;49.138;2024-01-11T20:04:39;5.53;;;1.85;;
67712;SDS011;67640;55.784;49.138;2024-01-11T20:09:58;10.27;;;1.67;;
67712;SDS011;67640;55.784;49.138;2024-01-11T20:15:17;4.87;;;1.60;;
67712;SDS011;67640;55.784;49.138;2024-01-11T20:20:22;18.12;;;2.08;;
67712;SDS011;67640;55.784;49.138;2024-01-11T20:25:40;5.73;;;1.70;;
67712;SDS011;67640;55.784;49.138;2024-01-11T20:30:45;7.62;;;2.20;;
67712;SDS011;67640;55.784;49.138;2024-01-11T20:36:05;6.40;;;1.92;;
67712;SDS011;67640;55.784;49.138;2024-01-11T20:41:26;7.60;;;1.70;;
67712;SDS011;67640;55.784;49.138;2024-01-11T20:46:45;9.85;;;2.20;;
67712;SDS011;67640;55.784;49.138;2024-01-11T20:52:04;7.47;;;2.50;;
67712;SDS011;67640;55.784;49.138;2024-01-11T20:57:10;8.00;;;2.70;;
67712;SDS011;67640;55.784;49.138;2024-01-11T21:02:15;14.68;;;3.08;;
67712;SDS011;67640;55.784;49.138;2024-01-11T21:07:20;7.07;;;2.03;;
67712;SDS011;67640;55.784;49.138;2024-01-11T21:12:39;9.18;;;2.67;;
67712;SDS011;67640;55.784;49.138;2024-01-11T21:17:58;5.93;;;1.70;;
67712;SDS011;67640;55.784;49.138;2024-01-11T21:23:18;7.83;;;1.90;;
67712;SDS011;67640;55.784;49.138;2024-01-11T21:28:23;9.08;;;2.42;;
67712;SDS011;67640;55.784;49.138;2024-01-11T21:33:43;8.30;;;2.42;;
67712;SDS011;67640;55.784;49.138;2024-01-11T21:39:02;9.58;;;2.55;;
67712;SDS011;67640;55.784;49.138;2024-01-11T21:44:21;8.15;;;3.20;;
67712;SDS011;67640;55.784;49.138;2024-01-11T21:49:40;9.30;;;2.03;;
67712;SDS011;67640;55.784;49.138;2024-01-11T21:54:45;6.72;;;2.90;;
67712;SDS011;67640;55.784;49.138;2024-01-11T21:59:50;6.42;;;2.45;;
67712;SDS011;67640;55.784;49.138;2024-01-11T22:05:08;6.67;;;2.50;;
67712;SDS011;67640;55.784;49.138;2024-01-11T22:10:13;8.38;;;2.70;;
67712;SDS011;67640;55.784;49.138;2024-01-11T22:15:33;18.73;;;2.62;;
67712;SDS011;67640;55.784;49.138;2024-01-11T22:20:52;9.73;;;2.63;;
67712;SDS011;67640;55.784;49.138;2024-01-11T22:26:11;7.83;;;2.47;;
67712;SDS011;67640;55.784;49.138;2024-01-11T22:36:55;6.55;;;2.52;;
67712;SDS011;67640;55.784;49.138;2024-01-11T22:42:00;11.80;;;3.22;;
67712;SDS011;67640;55.784;49.138;2024-01-11T22:47:18;12.68;;;3.52;;
67712;SDS011;67640;55.784;49.138;2024-01-11T22:52:23;9.43;;;3.30;;
67712;SDS011;67640;55.784;49.138;2024-01-11T22:57:41;8.33;;;2.75;;
67712;SDS011;67640;55.784;49.138;2024-01-11T23:08:11;10.90;;;2.80;;
67712;SDS011;67640;55.784;49.138;2024-01-11T23:13:30;9.98;;;2.87;;
67712;SDS011;67640;55.784;49.138;2024-01-11T23:18:49;6.83;;;2.43;;
67712;SDS011;67640;55.784;49.138;2024-01-11T23:24:09;8.45;;;2.15;;
67712;SDS011;67640;55.784;49.138;2024-01-11T23:29:29;8.35;;;2.30;;
67712;SDS011;67640;55.784;49.138;2024-01-11T23:34:53;11.57;;;2.93;;
67712;SDS011;67640;55.784;49.138;2024-01-11T23:40:01;9.60;;;2.67;;
67712;SDS011;67640;55.784;49.138;2024-01-11T23:45:20;9.48;;;2.47;;
67712;SDS011;67640;55.784;49.138;2024-01-11T23:50:25;8.37;;;2.60;;
67712;SDS011;67640;55.784;49.138;2024-01-11T23:55:44;9.93;;;2.22;;
